sensor_id;sensor_type;location;lat;lon;timestamp;temperature;humidity
34231;DHT22;21574;51.538;-0.084;2022-08-19T00:01:33;28.60;55.50
34231;DHT22;21574;51.538;-0.084;2022-08-19T00:04:01;28.60;55.20
34231;DHT22;21574;51.538;-0.084;2022-08-19T00:06:27;28.60;55.40
34231;DHT22;21574;51.538;-0.084;2022-08-19T00:08:53;28.60;55.40
34231;DHT22;21574;51.538;-0.084;2022-08-19T00:11:19;28.60;55.40
34231;DHT22;21574;51.538;-0.084;2022-08-19T00:13:45;28.50;55.30
34231;DHT22;21574;51.538;-0.084;2022-08-19T00:16:15;28.60;55.30
34231;DHT22;21574;51.538;-0.084;2022-08-19T00:18:41;28.60;55.30
34231;DHT22;21574;51.538;-0.084;2022-08-19T00:21:06;28.60;55.30
34231;DHT22;21574;51.538;-0.084;2022-08-19T00:23:32;28.50;55.20
34231;DHT22;21574;51.538;-0.084;2022-08-19T00:26:00;28.50;55.20
34231;DHT22;21574;51.538;-0.084;2022-08-19T00:28:25;28.60;55.30
34231;DHT22;21574;51.538;-0.084;2022-08-19T00:30:51;28.60;55.40
34231;DHT22;21574;51.538;-0.084;2022-08-19T00:33:18;28.50;55.30
34231;DHT22;21574;51.538;-0.084;2022-08-19T00:35:44;28.50;55.40
34231;DHT22;21574;51.538;-0.084;2022-08-19T00:38:09;28.50;55.40
34231;DHT22;21574;51.538;-0.084;2022-08-19T00:40:35;28.50;55.40
34231;DHT22;21574;51.538;-0.084;2022-08-19T00:43:00;28.50;55.40
34231;DHT22;21574;51.538;-0.084;2022-08-19T00:45:27;28.50;55.50
34231;DHT22;21574;51.538;-0.084;2022-08-19T00:47:55;28.50;55.40
34231;DHT22;21574;51.538;-0.084;2022-08-19T00:50:21;28.50;55.40
34231;DHT22;21574;51.538;-0.084;2022-08-19T00:52:48;28.50;55.60
34231;DHT22;21574;51.538;-0.084;2022-08-19T00:55:22;28.50;55.50
34231;DHT22;21574;51.538;-0.084;2022-08-19T00:57:51;28.50;55.40
34231;DHT22;21574;51.538;-0.084;2022-08-19T01:00:20;28.50;55.50
34231;DHT22;21574;51.538;-0.084;2022-08-19T01:02:45;28.50;55.40
34231;DHT22;21574;51.538;-0.084;2022-08-19T01:05:13;28.50;55.40
34231;DHT22;21574;51.538;-0.084;2022-08-19T01:07:40;28.50;55.30
34231;DHT22;21574;51.538;-0.084;2022-08-19T01:10:09;28.50;55.50
34231;DHT22;21574;51.538;-0.084;2022-08-19T01:12:35;28.50;55.50
34231;DHT22;21574;51.538;-0.084;2022-08-19T01:15:02;28.50;55.40
34231;DHT22;21574;51.538;-0.084;2022-08-19T01:17:27;28.40;55.40
34231;DHT22;21574;51.538;-0.084;2022-08-19T01:19:53;28.40;55.30
34231;DHT22;21574;51.538;-0.084;2022-08-19T01:24:44;28.40;55.40
34231;DHT22;21574;51.538;-0.084;2022-08-19T01:27:10;28.40;55.50
34231;DHT22;21574;51.538;-0.084;2022-08-19T01:29:37;28.40;55.40
34231;DHT22;21574;51.538;-0.084;2022-08-19T01:32:02;28.40;55.50
34231;DHT22;21574;51.538;-0.084;2022-08-19T01:34:28;28.40;55.50
34231;DHT22;21574;51.538;-0.084;2022-08-19T01:36:53;28.40;55.50
34231;DHT22;21574;51.538;-0.084;2022-08-19T01:39:20;28.40;55.60
34231;DHT22;21574;51.538;-0.084;2022-08-19T01:41:46;28.40;55.60
34231;DHT22;21574;51.538;-0.084;2022-08-19T01:44:14;28.40;55.60
34231;DHT22;21574;51.538;-0.084;2022-08-19T01:46:40;28.40;55.60
34231;DHT22;21574;51.538;-0.084;2022-08-19T01:49:06;28.40;55.70
34231;DHT22;21574;51.538;-0.084;2022-08-19T01:51:31;28.40;55.70
34231;DHT22;21574;51.538;-0.084;2022-08-19T01:53:57;28.40;55.70
34231;DHT22;21574;51.538;-0.084;2022-08-19T01:56:23;28.40;55.70
34231;DHT22;21574;51.538;-0.084;2022-08-19T01:58:49;28.40;55.50
34231;DHT22;21574;51.538;-0.084;2022-08-19T02:01:16;28.40;55.30
34231;DHT22;21574;51.538;-0.084;2022-08-19T02:03:42;28.40;55.90
34231;DHT22;21574;51.538;-0.084;2022-08-19T02:06:07;28.40;56.10
34231;DHT22;21574;51.538;-0.084;2022-08-19T02:08:34;28.40;55.60
34231;DHT22;21574;51.538;-0.084;2022-08-19T02:11:00;28.40;56.00
34231;DHT22;21574;51.538;-0.084;2022-08-19T02:13:25;28.40;55.80
34231;DHT22;21574;51.538;-0.084;2022-08-19T02:15:51;28.40;55.60
34231;DHT22;21574;51.538;-0.084;2022-08-19T02:18:16;28.40;56.00
34231;DHT22;21574;51.538;-0.084;2022-08-19T02:20:43;28.40;55.90
34231;DHT22;21574;51.538;-0.084;2022-08-19T02:23:10;28.30;55.80
34231;DHT22;21574;51.538;-0.084;2022-08-19T02:25:35;28.30;55.80
34231;DHT22;21574;51.538;-0.084;2022-08-19T02:28:01;28.30;55.80
34231;DHT22;21574;51.538;-0.084;2022-08-19T02:30:27;28.30;55.90
34231;DHT22;21574;51.538;-0.084;2022-08-19T02:32:52;28.30;55.70
34231;DHT22;21574;51.538;-0.084;2022-08-19T02:35:18;28.30;55.80
34231;DHT22;21574;51.538;-0.084;2022-08-19T02:37:44;28.30;55.60
34231;DHT22;21574;51.538;-0.084;2022-08-19T02:40:29;28.30;55.60
34231;DHT22;21574;51.538;-0.084;2022-08-19T02:42:55;28.30;55.90
34231;DHT22;21574;51.538;-0.084;2022-08-19T02:45:20;28.30;55.80
34231;DHT22;21574;51.538;-0.084;2022-08-19T02:47:46;28.30;55.90
34231;DHT22;21574;51.538;-0.084;2022-08-19T02:50:11;28.30;56.00
34231;DHT22;21574;51.538;-0.084;2022-08-19T02:52:38;28.30;56.00
34231;DHT22;21574;51.538;-0.084;2022-08-19T02:55:04;28.30;56.00
34231;DHT22;21574;51.538;-0.084;2022-08-19T02:57:30;28.30;56.00
34231;DHT22;21574;51.538;-0.084;2022-08-19T02:59:56;28.30;55.80
34231;DHT22;21574;51.538;-0.084;2022-08-19T03:02:22;28.30;56.30
34231;DHT22;21574;51.538;-0.084;2022-08-19T03:04:47;28.30;56.00
34231;DHT22;21574;51.538;-0.084;2022-08-19T03:07:13;28.30;55.80
34231;DHT22;21574;51.538;-0.084;2022-08-19T03:09:39;28.30;56.20
34231;DHT22;21574;51.538;-0.084;2022-08-19T03:12:05;28.30;56.30
34231;DHT22;21574;51.538;-0.084;2022-08-19T03:14:31;28.30;55.90
34231;DHT22;21574;51.538;-0.084;2022-08-19T03:16:57;28.30;56.00
34231;DHT22;21574;51.538;-0.084;2022-08-19T03:19:23;28.30;55.80
34231;DHT22;21574;51.538;-0.084;2022-08-19T03:21:48;28.30;56.10
34231;DHT22;21574;51.538;-0.084;2022-08-19T03:24:15;28.20;56.00
34231;DHT22;21574;51.538;-0.084;2022-08-19T03:26:41;28.20;55.90
34231;DHT22;21574;51.538;-0.084;2022-08-19T03:29:07;28.20;56.10
34231;DHT22;21574;51.538;-0.084;2022-08-19T03:31:36;28.20;56.00
34231;DHT22;21574;51.538;-0.084;2022-08-19T03:34:02;28.20;56.00
34231;DHT22;21574;51.538;-0.084;2022-08-19T03:36:27;28.20;56.30
34231;DHT22;21574;51.538;-0.084;2022-08-19T03:38:57;28.20;56.20
34231;DHT22;21574;51.538;-0.084;2022-08-19T03:41:24;28.20;56.20
34231;DHT22;21574;51.538;-0.084;2022-08-19T03:43:51;28.20;56.10
34231;DHT22;21574;51.538;-0.084;2022-08-19T03:46:18;28.20;56.10
34231;DHT22;21574;51.538;-0.084;2022-08-19T03:48:46;28.20;56.30
34231;DHT22;21574;51.538;-0.084;2022-08-19T03:51:19;28.20;56.30
34231;DHT22;21574;51.538;-0.084;2022-08-19T03:53:45;28.20;56.60
34231;DHT22;21574;51.538;-0.084;2022-08-19T03:56:11;28.20;56.40
34231;DHT22;21574;51.538;-0.084;2022-08-19T03:58:38;28.20;56.30
34231;DHT22;21574;51.538;-0.084;2022-08-19T04:01:06;28.20;56.10
34231;DHT22;21574;51.538;-0.084;2022-08-19T04:03:32;28.20;56.30
34231;DHT22;21574;51.538;-0.084;2022-08-19T04:05:57;28.20;56.20
34231;DHT22;21574;51.538;-0.084;2022-08-19T04:08:23;28.20;56.00
34231;DHT22;21574;51.538;-0.084;2022-08-19T04:10:48;28.20;56.00
34231;DHT22;21574;51.538;-0.084;2022-08-19T04:13:17;28.20;56.00
34231;DHT22;21574;51.538;-0.084;2022-08-19T04:15:44;28.20;56.00
34231;DHT22;21574;51.538;-0.084;2022-08-19T04:18:11;28.20;56.00
34231;DHT22;21574;51.538;-0.084;2022-08-19T04:20:43;28.20;56.00
34231;DHT22;21574;51.538;-0.084;2022-08-19T04:23:10;28.20;56.00
34231;DHT22;21574;51.538;-0.084;2022-08-19T04:25:36;28.20;56.10
34231;DHT22;21574;51.538;-0.084;2022-08-19T04:28:02;28.20;56.00
34231;DHT22;21574;51.538;-0.084;2022-08-19T04:30:27;28.20;56.00
34231;DHT22;21574;51.538;-0.084;2022-08-19T04:32:53;28.20;56.10
34231;DHT22;21574;51.538;-0.084;2022-08-19T04:35:18;28.20;56.10
34231;DHT22;21574;51.538;-0.084;2022-08-19T04:37:44;28.10;56.00
34231;DHT22;21574;51.538;-0.084;2022-08-19T04:40:09;28.20;56.10
34231;DHT22;21574;51.538;-0.084;2022-08-19T04:42:54;28.20;56.10
34231;DHT22;21574;51.538;-0.084;2022-08-19T04:45:20;28.20;56.10
34231;DHT22;21574;51.538;-0.084;2022-08-19T04:47:45;28.20;56.10
34231;DHT22;21574;51.538;-0.084;2022-08-19T04:50:11;28.20;56.40
34231;DHT22;21574;51.538;-0.084;2022-08-19T04:52:40;28.20;56.10
34231;DHT22;21574;51.538;-0.084;2022-08-19T04:55:09;28.20;56.10
34231;DHT22;21574;51.538;-0.084;2022-08-19T04:57:35;28.20;56.10
34231;DHT22;21574;51.538;-0.084;2022-08-19T05:00:02;28.20;56.10
34231;DHT22;21574;51.538;-0.084;2022-08-19T05:02:28;28.20;56.10
34231;DHT22;21574;51.538;-0.084;2022-08-19T05:04:58;28.20;56.20
34231;DHT22;21574;51.538;-0.084;2022-08-19T05:07:26;28.20;56.20
34231;DHT22;21574;51.538;-0.084;2022-08-19T05:09:52;28.20;56.30
34231;DHT22;21574;51.538;-0.084;2022-08-19T05:12:17;28.20;56.40
34231;DHT22;21574;51.538;-0.084;2022-08-19T05:14:43;28.20;56.40
34231;DHT22;21574;51.538;-0.084;2022-08-19T05:17:10;28.20;56.40
34231;DHT22;21574;51.538;-0.084;2022-08-19T05:19:35;28.20;56.90
34231;DHT22;21574;51.538;-0.084;2022-08-19T05:22:19;28.20;56.70
34231;DHT22;21574;51.538;-0.084;2022-08-19T05:24:58;28.20;56.60
34231;DHT22;21574;51.538;-0.084;2022-08-19T05:27:24;28.20;56.70
34231;DHT22;21574;51.538;-0.084;2022-08-19T05:29:49;28.20;57.10
34231;DHT22;21574;51.538;-0.084;2022-08-19T05:32:15;28.20;57.00
34231;DHT22;21574;51.538;-0.084;2022-08-19T05:34:40;28.20;56.90
34231;DHT22;21574;51.538;-0.084;2022-08-19T05:37:06;28.20;57.00
34231;DHT22;21574;51.538;-0.084;2022-08-19T05:39:33;28.20;56.90
34231;DHT22;21574;51.538;-0.084;2022-08-19T05:42:00;28.10;56.90
34231;DHT22;21574;51.538;-0.084;2022-08-19T05:44:27;28.10;56.80
34231;DHT22;21574;51.538;-0.084;2022-08-19T05:46:56;28.10;56.80
34231;DHT22;21574;51.538;-0.084;2022-08-19T05:49:23;28.10;56.80
34231;DHT22;21574;51.538;-0.084;2022-08-19T05:51:49;28.10;56.70
34231;DHT22;21574;51.538;-0.084;2022-08-19T05:54:14;28.10;56.70
34231;DHT22;21574;51.538;-0.084;2022-08-19T05:56:41;28.10;56.70
34231;DHT22;21574;51.538;-0.084;2022-08-19T05:59:07;28.20;56.80
34231;DHT22;21574;51.538;-0.084;2022-08-19T06:01:35;28.20;56.80
34231;DHT22;21574;51.538;-0.084;2022-08-19T06:04:00;28.20;56.80
34231;DHT22;21574;51.538;-0.084;2022-08-19T06:06:26;28.20;56.80
34231;DHT22;21574;51.538;-0.084;2022-08-19T06:08:51;28.20;56.90
34231;DHT22;21574;51.538;-0.084;2022-08-19T06:11:24;28.20;56.90
34231;DHT22;21574;51.538;-0.084;2022-08-19T06:13:51;28.20;56.90
34231;DHT22;21574;51.538;-0.084;2022-08-19T06:16:21;28.20;56.90
34231;DHT22;21574;51.538;-0.084;2022-08-19T06:18:58;28.20;57.20
34231;DHT22;21574;51.538;-0.084;2022-08-19T06:21:25;28.20;57.40
34231;DHT22;21574;51.538;-0.084;2022-08-19T06:23:52;28.20;58.00
34231;DHT22;21574;51.538;-0.084;2022-08-19T06:26:19;28.20;57.50
34231;DHT22;21574;51.538;-0.084;2022-08-19T06:28:45;28.20;57.50
34231;DHT22;21574;51.538;-0.084;2022-08-19T06:31:15;28.20;59.50
34231;DHT22;21574;51.538;-0.084;2022-08-19T06:33:42;28.20;59.50
34231;DHT22;21574;51.538;-0.084;2022-08-19T06:36:15;28.20;59.70
34231;DHT22;21574;51.538;-0.084;2022-08-19T06:38:40;28.20;59.50
34231;DHT22;21574;51.538;-0.084;2022-08-19T06:41:06;28.20;59.60
34231;DHT22;21574;51.538;-0.084;2022-08-19T06:43:31;28.20;59.60
34231;DHT22;21574;51.538;-0.084;2022-08-19T06:45:57;28.20;59.80
34231;DHT22;21574;51.538;-0.084;2022-08-19T06:48:24;28.20;59.50
34231;DHT22;21574;51.538;-0.084;2022-08-19T06:50:49;28.20;59.30
34231;DHT22;21574;51.538;-0.084;2022-08-19T06:53:16;28.20;59.40
34231;DHT22;21574;51.538;-0.084;2022-08-19T06:55:44;28.30;59.50
34231;DHT22;21574;51.538;-0.084;2022-08-19T06:58:10;28.20;59.40
34231;DHT22;21574;51.538;-0.084;2022-08-19T07:00:36;28.30;59.50
34231;DHT22;21574;51.538;-0.084;2022-08-19T07:03:01;28.30;59.40
34231;DHT22;21574;51.538;-0.084;2022-08-19T07:05:27;28.30;59.30
34231;DHT22;21574;51.538;-0.084;2022-08-19T07:07:53;28.30;59.40
34231;DHT22;21574;51.538;-0.084;2022-08-19T07:10:18;28.30;59.20
34231;DHT22;21574;51.538;-0.084;2022-08-19T07:12:44;28.30;59.60
34231;DHT22;21574;51.538;-0.084;2022-08-19T07:15:10;28.30;59.50
34231;DHT22;21574;51.538;-0.084;2022-08-19T07:17:36;28.30;59.10
34231;DHT22;21574;51.538;-0.084;2022-08-19T07:20:04;28.30;59.20
34231;DHT22;21574;51.538;-0.084;2022-08-19T07:22:32;28.30;59.40
34231;DHT22;21574;51.538;-0.084;2022-08-19T07:24:59;28.30;59.40
34231;DHT22;21574;51.538;-0.084;2022-08-19T07:27:24;28.30;59.60
34231;DHT22;21574;51.538;-0.084;2022-08-19T07:29:50;28.40;59.70
34231;DHT22;21574;51.538;-0.084;2022-08-19T07:32:15;28.30;59.80
34231;DHT22;21574;51.538;-0.084;2022-08-19T07:34:41;28.40;59.90
34231;DHT22;21574;51.538;-0.084;2022-08-19T07:37:06;28.40;60.00
34231;DHT22;21574;51.538;-0.084;2022-08-19T07:39:33;28.40;60.00
34231;DHT22;21574;51.538;-0.084;2022-08-19T07:41:59;28.30;59.70
34231;DHT22;21574;51.538;-0.084;2022-08-19T07:44:26;28.30;59.60
34231;DHT22;21574;51.538;-0.084;2022-08-19T07:46:53;28.40;59.40
34231;DHT22;21574;51.538;-0.084;2022-08-19T07:49:21;28.40;59.40
34231;DHT22;21574;51.538;-0.084;2022-08-19T07:51:49;28.40;59.30
34231;DHT22;21574;51.538;-0.084;2022-08-19T07:54:14;28.40;59.10
34231;DHT22;21574;51.538;-0.084;2022-08-19T07:56:40;28.40;59.90
34231;DHT22;21574;51.538;-0.084;2022-08-19T07:59:06;28.40;59.10
34231;DHT22;21574;51.538;-0.084;2022-08-19T08:01:31;28.40;58.60
34231;DHT22;21574;51.538;-0.084;2022-08-19T08:03:57;28.40;58.50
34231;DHT22;21574;51.538;-0.084;2022-08-19T08:06:41;28.50;59.20
34231;DHT22;21574;51.538;-0.084;2022-08-19T08:09:27;28.40;58.50
34231;DHT22;21574;51.538;-0.084;2022-08-19T08:11:56;28.50;59.50
34231;DHT22;21574;51.538;-0.084;2022-08-19T08:14:24;28.40;58.50
34231;DHT22;21574;51.538;-0.084;2022-08-19T08:16:49;28.40;58.30
34231;DHT22;21574;51.538;-0.084;2022-08-19T08:19:17;28.40;58.20
34231;DHT22;21574;51.538;-0.084;2022-08-19T08:21:43;28.40;58.10
34231;DHT22;21574;51.538;-0.084;2022-08-19T08:24:09;28.40;58.00
34231;DHT22;21574;51.538;-0.084;2022-08-19T08:26:34;28.40;57.90
34231;DHT22;21574;51.538;-0.084;2022-08-19T08:29:00;28.30;57.80
34231;DHT22;21574;51.538;-0.084;2022-08-19T08:31:26;28.40;58.40
34231;DHT22;21574;51.538;-0.084;2022-08-19T08:33:52;28.40;57.60
34231;DHT22;21574;51.538;-0.084;2022-08-19T08:36:17;28.40;57.50
34231;DHT22;21574;51.538;-0.084;2022-08-19T08:38:43;28.40;57.50
34231;DHT22;21574;51.538;-0.084;2022-08-19T08:41:20;28.40;57.40
34231;DHT22;21574;51.538;-0.084;2022-08-19T08:43:49;28.40;57.50
34231;DHT22;21574;51.538;-0.084;2022-08-19T08:46:24;28.40;57.40
34231;DHT22;21574;51.538;-0.084;2022-08-19T08:48:54;28.30;57.30
34231;DHT22;21574;51.538;-0.084;2022-08-19T08:51:40;28.40;57.40
34231;DHT22;21574;51.538;-0.084;2022-08-19T08:54:08;28.30;57.30
34231;DHT22;21574;51.538;-0.084;2022-08-19T08:56:35;28.40;57.40
34231;DHT22;21574;51.538;-0.084;2022-08-19T08:59:05;28.40;57.30
34231;DHT22;21574;51.538;-0.084;2022-08-19T09:01:34;28.30;57.30
34231;DHT22;21574;51.538;-0.084;2022-08-19T09:03:59;28.40;57.80
34231;DHT22;21574;51.538;-0.084;2022-08-19T09:06:33;28.40;57.20
34231;DHT22;21574;51.538;-0.084;2022-08-19T09:09:20;28.40;57.10
34231;DHT22;21574;51.538;-0.084;2022-08-19T09:14:36;28.30;57.00
34231;DHT22;21574;51.538;-0.084;2022-08-19T09:17:03;28.40;57.10
34231;DHT22;21574;51.538;-0.084;2022-08-19T09:19:29;28.40;58.40
34231;DHT22;21574;51.538;-0.084;2022-08-19T09:21:55;28.40;58.90
34231;DHT22;21574;51.538;-0.084;2022-08-19T09:24:20;28.40;58.70
34231;DHT22;21574;51.538;-0.084;2022-08-19T09:26:46;28.40;58.30
34231;DHT22;21574;51.538;-0.084;2022-08-19T09:29:12;28.50;58.30
34231;DHT22;21574;51.538;-0.084;2022-08-19T09:31:38;28.40;58.10
34231;DHT22;21574;51.538;-0.084;2022-08-19T09:34:03;28.50;58.10
34231;DHT22;21574;51.538;-0.084;2022-08-19T09:36:31;28.50;58.00
34231;DHT22;21574;51.538;-0.084;2022-08-19T09:39:04;28.50;57.80
34231;DHT22;21574;51.538;-0.084;2022-08-19T09:41:30;28.50;58.00
34231;DHT22;21574;51.538;-0.084;2022-08-19T09:43:57;28.50;57.90
34231;DHT22;21574;51.538;-0.084;2022-08-19T09:46:24;28.50;57.90
34231;DHT22;21574;51.538;-0.084;2022-08-19T09:48:50;28.50;57.90
34231;DHT22;21574;51.538;-0.084;2022-08-19T09:51:18;28.50;57.80
34231;DHT22;21574;51.538;-0.084;2022-08-19T09:53:44;28.60;57.80
34231;DHT22;21574;51.538;-0.084;2022-08-19T09:56:10;28.50;57.60
34231;DHT22;21574;51.538;-0.084;2022-08-19T09:58:37;28.60;58.30
34231;DHT22;21574;51.538;-0.084;2022-08-19T10:01:03;28.60;57.80
34231;DHT22;21574;51.538;-0.084;2022-08-19T10:03:30;28.60;57.50
34231;DHT22;21574;51.538;-0.084;2022-08-19T10:05:56;28.60;57.50
34231;DHT22;21574;51.538;-0.084;2022-08-19T10:08:27;28.60;57.40
34231;DHT22;21574;51.538;-0.084;2022-08-19T10:10:52;28.60;57.40
34231;DHT22;21574;51.538;-0.084;2022-08-19T10:13:20;28.50;57.30
34231;DHT22;21574;51.538;-0.084;2022-08-19T10:15:48;28.60;57.40
34231;DHT22;21574;51.538;-0.084;2022-08-19T10:18:17;28.60;57.20
34231;DHT22;21574;51.538;-0.084;2022-08-19T10:20:43;28.60;57.20
34231;DHT22;21574;51.538;-0.084;2022-08-19T10:23:10;28.60;57.20
34231;DHT22;21574;51.538;-0.084;2022-08-19T10:25:36;28.60;57.10
34231;DHT22;21574;51.538;-0.084;2022-08-19T10:28:03;28.60;57.10
34231;DHT22;21574;51.538;-0.084;2022-08-19T10:30:29;28.60;57.00
34231;DHT22;21574;51.538;-0.084;2022-08-19T10:32:55;28.60;56.90
34231;DHT22;21574;51.538;-0.084;2022-08-19T10:35:20;28.60;56.70
34231;DHT22;21574;51.538;-0.084;2022-08-19T10:37:46;28.60;56.70
34231;DHT22;21574;51.538;-0.084;2022-08-19T10:40:11;28.60;56.70
34231;DHT22;21574;51.538;-0.084;2022-08-19T10:42:37;28.60;56.60
34231;DHT22;21574;51.538;-0.084;2022-08-19T10:45:03;28.70;56.60
34231;DHT22;21574;51.538;-0.084;2022-08-19T10:47:31;28.60;56.50
34231;DHT22;21574;51.538;-0.084;2022-08-19T10:49:57;28.70;56.50
34231;DHT22;21574;51.538;-0.084;2022-08-19T10:52:45;28.70;56.50
34231;DHT22;21574;51.538;-0.084;2022-08-19T10:55:11;28.70;56.40
34231;DHT22;21574;51.538;-0.084;2022-08-19T10:57:55;28.70;56.40
34231;DHT22;21574;51.538;-0.084;2022-08-19T11:00:22;28.70;56.30
34231;DHT22;21574;51.538;-0.084;2022-08-19T11:02:48;28.70;56.20
34231;DHT22;21574;51.538;-0.084;2022-08-19T11:05:14;28.70;56.30
34231;DHT22;21574;51.538;-0.084;2022-08-19T11:07:40;28.70;56.20
34231;DHT22;21574;51.538;-0.084;2022-08-19T11:10:06;28.70;56.20
34231;DHT22;21574;51.538;-0.084;2022-08-19T11:12:32;28.70;56.10
34231;DHT22;21574;51.538;-0.084;2022-08-19T11:14:58;28.70;56.10
34231;DHT22;21574;51.538;-0.084;2022-08-19T11:17:23;28.70;56.10
34231;DHT22;21574;51.538;-0.084;2022-08-19T11:19:49;28.70;56.10
34231;DHT22;21574;51.538;-0.084;2022-08-19T11:22:15;28.70;56.10
34231;DHT22;21574;51.538;-0.084;2022-08-19T11:24:40;28.70;56.00
34231;DHT22;21574;51.538;-0.084;2022-08-19T11:27:07;28.70;56.00
34231;DHT22;21574;51.538;-0.084;2022-08-19T11:29:34;28.70;56.00
34231;DHT22;21574;51.538;-0.084;2022-08-19T11:32:02;28.80;56.60
34231;DHT22;21574;51.538;-0.084;2022-08-19T11:34:28;28.80;56.50
34231;DHT22;21574;51.538;-0.084;2022-08-19T11:36:55;28.70;56.00
34231;DHT22;21574;51.538;-0.084;2022-08-19T11:39:24;28.80;55.90
34231;DHT22;21574;51.538;-0.084;2022-08-19T11:41:50;28.80;55.50
34231;DHT22;21574;51.538;-0.084;2022-08-19T11:44:15;28.90;54.90
34231;DHT22;21574;51.538;-0.084;2022-08-19T11:46:42;29.00;54.60
34231;DHT22;21574;51.538;-0.084;2022-08-19T11:49:10;29.00;54.60
34231;DHT22;21574;51.538;-0.084;2022-08-19T11:51:36;29.00;54.60
34231;DHT22;21574;51.538;-0.084;2022-08-19T11:54:03;29.00;54.60
34231;DHT22;21574;51.538;-0.084;2022-08-19T11:56:29;29.10;54.70
34231;DHT22;21574;51.538;-0.084;2022-08-19T11:58:55;29.10;54.50
34231;DHT22;21574;51.538;-0.084;2022-08-19T12:01:22;29.10;54.50
34231;DHT22;21574;51.538;-0.084;2022-08-19T12:03:49;29.20;54.50
34231;DHT22;21574;51.538;-0.084;2022-08-19T12:06:16;29.20;54.50
34231;DHT22;21574;51.538;-0.084;2022-08-19T12:08:43;29.30;54.60
34231;DHT22;21574;51.538;-0.084;2022-08-19T12:11:09;29.20;54.60
34231;DHT22;21574;51.538;-0.084;2022-08-19T12:13:35;29.30;54.60
34231;DHT22;21574;51.538;-0.084;2022-08-19T12:16:01;29.30;54.60
34231;DHT22;21574;51.538;-0.084;2022-08-19T12:18:32;29.30;54.60
34231;DHT22;21574;51.538;-0.084;2022-08-19T12:20:57;29.30;54.70
34231;DHT22;21574;51.538;-0.084;2022-08-19T12:23:23;29.30;54.70
34231;DHT22;21574;51.538;-0.084;2022-08-19T12:25:48;29.30;54.70
34231;DHT22;21574;51.538;-0.084;2022-08-19T12:28:20;29.30;54.50
34231;DHT22;21574;51.538;-0.084;2022-08-19T12:30:46;29.30;54.50
34231;DHT22;21574;51.538;-0.084;2022-08-19T12:33:12;29.30;54.30
34231;DHT22;21574;51.538;-0.084;2022-08-19T12:35:39;29.30;54.30
34231;DHT22;21574;51.538;-0.084;2022-08-19T12:38:05;29.30;54.10
34231;DHT22;21574;51.538;-0.084;2022-08-19T12:40:31;29.30;53.90
34231;DHT22;21574;51.538;-0.084;2022-08-19T12:42:57;29.40;53.70
34231;DHT22;21574;51.538;-0.084;2022-08-19T12:45:22;29.40;53.50
34231;DHT22;21574;51.538;-0.084;2022-08-19T12:47:48;29.40;53.50
34231;DHT22;21574;51.538;-0.084;2022-08-19T12:50:13;29.50;53.50
34231;DHT22;21574;51.538;-0.084;2022-08-19T12:52:39;29.40;53.40
34231;DHT22;21574;51.538;-0.084;2022-08-19T12:55:06;29.50;53.30
34231;DHT22;21574;51.538;-0.084;2022-08-19T12:57:31;29.50;53.20
34231;DHT22;21574;51.538;-0.084;2022-08-19T13:00:00;29.50;53.20
34231;DHT22;21574;51.538;-0.084;2022-08-19T13:02:26;29.50;53.00
34231;DHT22;21574;51.538;-0.084;2022-08-19T13:04:52;29.40;53.30
34231;DHT22;21574;51.538;-0.084;2022-08-19T13:07:17;29.30;52.80
34231;DHT22;21574;51.538;-0.084;2022-08-19T13:09:43;29.20;53.20
34231;DHT22;21574;51.538;-0.084;2022-08-19T13:12:08;29.20;53.20
34231;DHT22;21574;51.538;-0.084;2022-08-19T13:14:38;29.10;53.00
34231;DHT22;21574;51.538;-0.084;2022-08-19T13:17:05;29.10;53.20
34231;DHT22;21574;51.538;-0.084;2022-08-19T13:19:31;29.10;53.20
34231;DHT22;21574;51.538;-0.084;2022-08-19T13:21:56;29.00;53.10
34231;DHT22;21574;51.538;-0.084;2022-08-19T13:24:23;29.00;53.10
34231;DHT22;21574;51.538;-0.084;2022-08-19T13:26:48;29.00;53.10
34231;DHT22;21574;51.538;-0.084;2022-08-19T13:29:14;29.00;53.10
34231;DHT22;21574;51.538;-0.084;2022-08-19T13:31:58;29.00;53.20
34231;DHT22;21574;51.538;-0.084;2022-08-19T13:34:44;28.90;53.20
34231;DHT22;21574;51.538;-0.084;2022-08-19T13:37:12;28.90;53.40
34231;DHT22;21574;51.538;-0.084;2022-08-19T13:39:37;29.00;53.50
34231;DHT22;21574;51.538;-0.084;2022-08-19T13:42:04;29.00;53.50
34231;DHT22;21574;51.538;-0.084;2022-08-19T13:44:30;29.00;53.30
34231;DHT22;21574;51.538;-0.084;2022-08-19T13:47:04;29.00;53.30
34231;DHT22;21574;51.538;-0.084;2022-08-19T13:49:35;28.90;53.30
34231;DHT22;21574;51.538;-0.084;2022-08-19T13:52:02;28.90;53.20
34231;DHT22;21574;51.538;-0.084;2022-08-19T13:54:27;28.90;53.10
34231;DHT22;21574;51.538;-0.084;2022-08-19T13:56:53;28.90;53.60
34231;DHT22;21574;51.538;-0.084;2022-08-19T13:59:18;28.90;53.10
34231;DHT22;21574;51.538;-0.084;2022-08-19T14:01:44;28.90;53.10
34231;DHT22;21574;51.538;-0.084;2022-08-19T14:04:10;28.90;53.20
34231;DHT22;21574;51.538;-0.084;2022-08-19T14:06:35;28.90;53.10
34231;DHT22;21574;51.538;-0.084;2022-08-19T14:09:01;28.90;53.00
34231;DHT22;21574;51.538;-0.084;2022-08-19T14:11:28;28.90;52.40
34231;DHT22;21574;51.538;-0.084;2022-08-19T14:13:53;28.90;52.40
34231;DHT22;21574;51.538;-0.084;2022-08-19T14:16:19;28.90;52.70
34231;DHT22;21574;51.538;-0.084;2022-08-19T14:18:44;28.90;52.20
34231;DHT22;21574;51.538;-0.084;2022-08-19T14:21:17;29.00;51.80
34231;DHT22;21574;51.538;-0.084;2022-08-19T14:23:45;29.10;51.90
34231;DHT22;21574;51.538;-0.084;2022-08-19T14:26:11;29.20;51.90
34231;DHT22;21574;51.538;-0.084;2022-08-19T14:28:37;29.20;51.80
34231;DHT22;21574;51.538;-0.084;2022-08-19T14:31:04;29.30;51.90
34231;DHT22;21574;51.538;-0.084;2022-08-19T14:33:30;29.30;51.80
34231;DHT22;21574;51.538;-0.084;2022-08-19T14:35:55;29.30;51.90
34231;DHT22;21574;51.538;-0.084;2022-08-19T14:38:21;29.30;51.90
34231;DHT22;21574;51.538;-0.084;2022-08-19T14:40:46;29.30;51.80
34231;DHT22;21574;51.538;-0.084;2022-08-19T14:43:12;29.30;51.80
34231;DHT22;21574;51.538;-0.084;2022-08-19T14:45:38;29.30;51.70
34231;DHT22;21574;51.538;-0.084;2022-08-19T14:48:04;29.40;51.50
34231;DHT22;21574;51.538;-0.084;2022-08-19T14:50:30;29.40;51.50
34231;DHT22;21574;51.538;-0.084;2022-08-19T14:53:00;29.40;51.30
34231;DHT22;21574;51.538;-0.084;2022-08-19T14:55:26;29.40;51.20
34231;DHT22;21574;51.538;-0.084;2022-08-19T14:57:51;29.40;51.20
34231;DHT22;21574;51.538;-0.084;2022-08-19T15:00:17;29.50;51.10
34231;DHT22;21574;51.538;-0.084;2022-08-19T15:02:43;29.50;50.90
34231;DHT22;21574;51.538;-0.084;2022-08-19T15:05:09;29.50;50.80
34231;DHT22;21574;51.538;-0.084;2022-08-19T15:07:35;29.60;50.80
34231;DHT22;21574;51.538;-0.084;2022-08-19T15:10:00;29.60;50.80
34231;DHT22;21574;51.538;-0.084;2022-08-19T15:12:26;29.60;50.80
34231;DHT22;21574;51.538;-0.084;2022-08-19T15:14:51;29.60;50.70
34231;DHT22;21574;51.538;-0.084;2022-08-19T15:17:17;29.60;50.70
34231;DHT22;21574;51.538;-0.084;2022-08-19T15:19:43;29.60;50.60